Reading, Kansas
Current Conditions -  °F | °C
As of 12:53 PM on Friday 31 Oct 2014 (Local Time) from KEMP Reporting Station
Clear Clear  
Wind Chill: 34°   Ceiling: Unl
Heat Index: 42°   Visibility: 10mi
Dew Point: 18°   Wind: 16mph
Humidity: 38%   Direction: 10°N
Pressure: 30.5"   Gusts: 23mph
Location:  38.52°N, 95.96°W
Report Text: KEMP 311753Z AUTO 01014G20KT 10SM CLR 06/M08 A3050 RMK AO2 SLP335 T00561078 10061 20011 58001
Loading
Personal Weather Stations






























Interactive Weather Map
Tropical Storm Tracking
New forecast layout! Learn more

10-Day Weather Forecast

Advertisements
Track Severe Weather on mobile